createdAt,value
2018-02-16T00:00:14.025Z,24.97
2018-02-16T00:02:49.275Z,22.63
2018-02-16T00:05:24.451Z,24.23
2018-02-16T00:07:59.107Z,25.97
2018-02-16T00:10:34.134Z,25.17
2018-02-16T00:13:10.459Z,25.20
2018-02-16T00:15:45.430Z,25.10
2018-02-16T00:18:20.295Z,24.60
2018-02-16T00:20:55.251Z,24.60
2018-02-16T00:23:30.431Z,25.07
2018-02-16T00:26:05.079Z,24.27
2018-02-16T00:28:40.458Z,23.73
2018-02-16T00:31:16.058Z,25.33
2018-02-16T00:33:51.183Z,23.77
2018-02-16T00:36:26.447Z,25.98
2018-02-16T00:39:01.595Z,24.67
2018-02-16T00:41:36.427Z,23.23
2018-02-16T00:44:11.529Z,23.57
2018-02-16T00:46:46.484Z,24.07
2018-02-16T00:49:21.603Z,24.43
2018-02-16T00:51:56.171Z,23.17
2018-02-16T00:54:31.214Z,24.17
2018-02-16T00:57:05.556Z,25.27
2018-02-16T00:59:40.991Z,26.50
2018-02-16T01:02:16.031Z,24.50
2018-02-16T01:04:51.063Z,25.55
2018-02-16T01:07:25.723Z,24.03
2018-02-16T01:10:01.338Z,22.37
2018-02-16T01:12:36.347Z,24.47
2018-02-16T01:15:11.241Z,24.17
2018-02-16T01:17:46.247Z,24.80
2018-02-16T01:20:21.378Z,24.70
2018-02-16T01:22:56.175Z,25.90
2018-02-16T01:25:31.215Z,24.47
2018-02-16T01:28:06.265Z,24.40
2018-02-16T01:30:41.337Z,26.27
2018-02-16T01:33:15.927Z,23.93
2018-02-16T01:35:51.306Z,23.87
2018-02-16T01:38:26.298Z,23.27
2018-02-16T01:41:01.399Z,23.20
2018-02-16T01:43:36.427Z,26.10
2018-02-16T01:46:11.587Z,24.07
2018-02-16T01:48:46.699Z,20.83
2018-02-16T01:51:21.663Z,23.93
2018-02-16T01:53:56.391Z,22.13
2018-02-16T01:56:31.258Z,21.73
2018-02-16T01:59:05.713Z,21.97
2018-02-16T02:01:40.658Z,22.13
2018-02-16T02:04:15.823Z,21.93
2018-02-16T02:06:50.481Z,21.07
2018-02-16T02:09:25.543Z,21.53
2018-02-16T02:12:00.414Z,22.50
2018-02-16T02:14:35.323Z,21.97
2018-02-16T02:17:10.721Z,22.90
2018-02-16T02:19:45.127Z,20.90
2018-02-16T02:22:20.459Z,22.67
2018-02-16T02:24:54.844Z,22.90
2018-02-16T02:27:30.074Z,20.92
2018-02-16T02:30:05.303Z,23.10
2018-02-16T02:32:40.307Z,23.70
2018-02-16T02:35:15.285Z,23.48
2018-02-16T02:37:50.323Z,21.00
2018-02-16T02:40:25.387Z,20.00
2018-02-16T02:43:00.656Z,21.13
2018-02-16T02:45:35.634Z,21.23
2018-02-16T02:48:10.837Z,21.17
2018-02-16T02:50:45.595Z,19.40
2018-02-16T02:53:20.813Z,23.37
2018-02-16T02:55:55.429Z,20.37
2018-02-16T02:58:30.475Z,21.33
2018-02-16T03:01:05.755Z,21.63
2018-02-16T03:03:40.632Z,19.93
2018-02-16T03:06:15.723Z,20.90
2018-02-16T03:08:50.815Z,21.77
2018-02-16T03:11:25.730Z,21.70
2018-02-16T03:14:00.796Z,20.30
2018-02-16T03:16:35.823Z,19.43
2018-02-16T03:19:10.899Z,17.60
2018-02-16T03:21:45.651Z,17.47
2018-02-16T03:24:20.702Z,20.05
2018-02-16T03:26:55.551Z,20.20
2018-02-16T03:29:30.926Z,19.80
2018-02-16T03:32:05.546Z,21.30
2018-02-16T03:34:40.607Z,12.97
2018-02-16T03:37:15.516Z,19.50
2018-02-16T03:39:50.439Z,17.97
2018-02-16T03:42:25.632Z,18.40
2018-02-16T03:45:00.611Z,19.50
2018-02-16T03:47:35.607Z,19.00
2018-02-16T03:50:10.926Z,20.77
2018-02-16T03:52:46.058Z,21.77
2018-02-16T03:55:21.059Z,20.70
2018-02-16T03:57:56.431Z,16.40
2018-02-16T04:00:31.463Z,19.60
2018-02-16T04:03:06.546Z,18.97
2018-02-16T04:05:41.878Z,18.00
2018-02-16T04:08:16.819Z,17.85
2018-02-16T04:10:51.975Z,20.20
2018-02-16T04:13:27.368Z,20.40
2018-02-16T04:16:02.499Z,19.80
2018-02-16T04:18:37.619Z,18.23
2018-02-16T04:21:12.659Z,19.97
2018-02-16T04:23:47.615Z,17.50
2018-02-16T04:26:22.786Z,19.12
2018-02-16T04:28:57.159Z,16.60
2018-02-16T04:31:31.999Z,18.57
2018-02-16T04:34:07.149Z,19.73
2018-02-16T04:36:41.679Z,18.83
2018-02-16T04:39:16.778Z,19.67
2018-02-16T04:41:51.702Z,20.77
2018-02-16T04:44:27.183Z,19.50
2018-02-16T04:47:01.795Z,19.07
2018-02-16T04:49:36.739Z,19.40
2018-02-16T04:52:11.880Z,19.43
2018-02-16T04:54:46.726Z,20.60
2018-02-16T04:57:21.670Z,19.40
2018-02-16T04:59:56.719Z,21.37
2018-02-16T05:02:31.715Z,19.60
2018-02-16T05:05:06.606Z,21.23
2018-02-16T05:07:41.607Z,19.80
2018-02-16T05:10:16.902Z,21.42
2018-02-16T05:12:51.692Z,22.00
2018-02-16T05:15:26.948Z,20.70
2018-02-16T05:18:01.702Z,19.60
2018-02-16T05:20:36.860Z,17.70
2018-02-16T05:23:12.087Z,19.50
2018-02-16T05:25:47.037Z,23.33
2018-02-16T05:28:22.157Z,21.33
2018-02-16T05:30:56.735Z,22.73
2018-02-16T05:33:31.675Z,23.77
2018-02-16T05:36:07.243Z,24.85
2018-02-16T05:38:42.872Z,22.73
2018-02-16T05:41:17.915Z,24.10
2018-02-16T05:43:52.867Z,23.67
2018-02-16T05:46:27.463Z,22.80
2018-02-16T05:49:03.582Z,24.53
2018-02-16T05:51:38.706Z,22.80
2018-02-16T05:54:13.719Z,23.95
2018-02-16T05:56:48.394Z,21.80
2018-02-16T05:59:23.283Z,23.43
2018-02-16T06:01:58.227Z,21.50
2018-02-16T06:04:33.120Z,25.17
2018-02-16T06:07:08.075Z,24.70
2018-02-16T06:09:42.956Z,20.63
2018-02-16T06:12:18.007Z,24.00
2018-02-16T06:14:52.842Z,22.40
2018-02-16T06:17:27.847Z,21.20
2018-02-16T06:20:03.432Z,22.07
2018-02-16T06:22:38.812Z,22.23
2018-02-16T06:25:13.916Z,23.00
2018-02-16T06:27:48.327Z,23.20
2018-02-16T06:30:23.151Z,21.20
2018-02-16T06:32:58.181Z,22.53
2018-02-16T06:35:33.130Z,21.40
2018-02-16T06:38:08.310Z,23.10
2018-02-16T06:40:43.339Z,23.50
2018-02-16T06:43:18.956Z,21.25
2018-02-16T06:45:53.411Z,22.47
2018-02-16T06:48:28.019Z,22.60
2018-02-16T06:51:02.735Z,23.63
2018-02-16T06:53:37.971Z,22.20
2018-02-16T06:56:13.122Z,22.05
2018-02-16T06:58:47.775Z,26.73
2018-02-16T07:01:23.029Z,20.30
2018-02-16T07:03:57.491Z,24.60
2018-02-16T07:06:33.587Z,26.45
2018-02-16T07:09:08.539Z,25.50
2018-02-16T07:11:43.311Z,25.00
2018-02-16T07:14:18.255Z,26.07
2018-02-16T07:16:53.402Z,18.60
2018-02-16T07:19:28.270Z,24.10
2018-02-16T07:22:03.227Z,24.40
2018-02-16T07:24:38.110Z,24.23
2018-02-16T07:27:13.339Z,22.17
2018-02-16T07:29:48.195Z,23.63
2018-02-16T07:32:23.218Z,23.60
2018-02-16T07:34:58.087Z,24.17
2018-02-16T07:37:32.871Z,21.92
2018-02-16T07:40:07.647Z,23.67
2018-02-16T07:42:42.890Z,21.73
2018-02-16T07:45:17.431Z,20.87
2018-02-16T07:47:52.058Z,23.47
2018-02-16T07:50:27.252Z,24.20
2018-02-16T07:53:02.098Z,22.00
2018-02-16T07:55:37.175Z,24.20
2018-02-16T07:58:12.373Z,21.27
2018-02-16T08:00:47.015Z,22.90
2018-02-16T08:03:22.422Z,20.52
2018-02-16T08:05:57.174Z,21.87
2018-02-16T08:08:32.015Z,21.50
2018-02-16T08:11:07.202Z,18.93
2018-02-16T08:13:42.195Z,19.20
2018-02-16T08:16:17.335Z,20.27
2018-02-16T08:18:52.190Z,19.43
2018-02-16T08:21:27.260Z,19.33
2018-02-16T08:24:02.311Z,18.43
2018-02-16T08:26:37.563Z,18.00
2018-02-16T08:29:12.804Z,16.97
2018-02-16T08:31:47.445Z,16.00
2018-02-16T08:34:22.695Z,16.97
2018-02-16T08:36:58.251Z,14.97
2018-02-16T08:39:33.150Z,16.80
2018-02-16T08:42:08.229Z,11.10
2018-02-16T08:44:43.494Z,15.80
2018-02-16T08:47:18.311Z,14.73
2018-02-16T08:49:53.171Z,15.73
2018-02-16T08:52:28.542Z,16.00
2018-02-16T08:55:03.477Z,15.10
2018-02-16T08:57:38.339Z,14.40
2018-02-16T09:00:13.343Z,13.90
2018-02-16T09:02:48.510Z,10.50
2018-02-16T09:05:23.299Z,12.80
2018-02-16T09:07:58.547Z,13.50
2018-02-16T09:10:33.671Z,14.63
2018-02-16T09:13:08.603Z,11.77
2018-02-16T09:15:43.655Z,12.50
2018-02-16T09:18:18.711Z,11.90
2018-02-16T09:20:53.639Z,12.10
2018-02-16T09:23:29.195Z,10.38
2018-02-16T09:26:04.223Z,11.73
2018-02-16T09:28:39.011Z,9.90
2018-02-16T09:31:14.235Z,12.20
2018-02-16T09:33:49.317Z,13.43
2018-02-16T09:36:24.305Z,12.25
2018-02-16T09:39:00.067Z,8.80
2018-02-16T09:41:35.248Z,9.57
2018-02-16T09:44:11.571Z,10.45
2018-02-16T09:46:46.021Z,13.67
2018-02-16T09:49:21.478Z,10.93
2018-02-16T09:51:56.491Z,9.50
2018-02-16T09:54:31.440Z,10.10
2018-02-16T09:57:06.343Z,10.90
2018-02-16T09:59:41.388Z,11.53
2018-02-16T10:02:16.639Z,10.73
2018-02-16T10:04:51.619Z,10.30
2018-02-16T10:07:27.344Z,9.52
2018-02-16T10:10:01.579Z,6.00
2018-02-16T10:12:36.414Z,9.43
2018-02-16T10:15:11.763Z,9.63
2018-02-16T10:17:46.391Z,9.60
2018-02-16T10:20:21.376Z,9.17
2018-02-16T10:22:56.419Z,9.80
2018-02-16T10:25:31.311Z,10.67
2018-02-16T10:28:06.440Z,7.30
2018-02-16T10:30:41.258Z,8.30
2018-02-16T10:33:15.948Z,8.05
2018-02-16T10:35:51.282Z,8.55
2018-02-16T10:38:25.986Z,10.20
2018-02-16T10:41:01.307Z,8.18
2018-02-16T10:43:35.739Z,8.97
2018-02-16T10:46:11.686Z,9.10
2018-02-16T10:48:46.535Z,7.63
2018-02-16T10:51:21.498Z,10.10
2018-02-16T10:53:56.595Z,10.40
2018-02-16T10:56:31.551Z,9.53
2018-02-16T10:59:06.604Z,8.67
2018-02-16T11:01:44.991Z,8.47
2018-02-16T11:07:24.468Z,5.53
2018-02-16T11:09:59.447Z,7.80
2018-02-16T11:12:34.438Z,7.20
2018-02-16T11:15:09.591Z,8.20
2018-02-16T11:17:44.743Z,7.93
2018-02-16T11:20:19.778Z,8.10
2018-02-16T11:22:54.776Z,8.13
2018-02-16T11:25:29.847Z,8.53
2018-02-16T11:28:04.794Z,9.07
2018-02-16T11:30:39.890Z,8.73
2018-02-16T11:33:14.962Z,9.67
2018-02-16T11:35:49.533Z,11.30
2018-02-16T11:38:24.679Z,7.87
2018-02-16T11:40:59.486Z,7.47
2018-02-16T11:43:34.553Z,8.80
2018-02-16T11:46:09.023Z,10.00
2018-02-16T11:48:43.983Z,10.07
2018-02-16T11:51:18.843Z,9.60
2018-02-16T11:53:53.983Z,8.57
2018-02-16T11:56:29.218Z,7.87
2018-02-16T11:59:03.355Z,10.00
2018-02-16T12:01:38.694Z,7.57
2018-02-16T12:04:13.598Z,8.00
2018-02-16T12:06:48.532Z,7.53
2018-02-16T12:09:23.811Z,7.07
2018-02-16T12:11:58.600Z,7.90
2018-02-16T12:14:33.663Z,6.40
2018-02-16T12:17:08.735Z,6.50
2018-02-16T12:19:43.598Z,6.45
2018-02-16T12:22:17.852Z,7.10
2018-02-16T12:24:52.485Z,6.70
2018-02-16T12:27:27.148Z,7.63
2018-02-16T12:30:01.602Z,7.10
2018-02-16T12:32:36.655Z,9.13
2018-02-16T12:35:11.944Z,7.22
2018-02-16T12:37:46.623Z,7.70
2018-02-16T12:40:21.232Z,6.93
2018-02-16T12:42:56.092Z,8.47
2018-02-16T12:45:31.583Z,7.82
2018-02-16T12:48:06.258Z,7.30
2018-02-16T12:50:41.595Z,6.95
2018-02-16T12:53:16.711Z,7.18
2018-02-16T12:55:51.593Z,6.20
2018-02-16T12:58:26.209Z,6.03
2018-02-16T13:01:01.620Z,5.93
2018-02-16T13:03:36.731Z,5.00
2018-02-16T13:06:12.142Z,5.78
2018-02-16T13:08:47.791Z,4.80
2018-02-16T13:11:22.207Z,6.67
2018-02-16T13:13:57.071Z,6.17
2018-02-16T13:16:32.078Z,5.53
2018-02-16T13:19:07.107Z,6.00
2018-02-16T13:21:42.919Z,5.83
2018-02-16T13:24:18.043Z,5.57
2018-02-16T13:26:52.828Z,3.63
2018-02-16T13:29:28.021Z,7.15
2018-02-16T13:32:02.911Z,4.77
2018-02-16T13:34:37.803Z,6.73
2018-02-16T13:37:12.742Z,6.93
2018-02-16T13:39:47.184Z,9.40
2018-02-16T13:42:22.175Z,7.65
2018-02-16T13:44:57.211Z,7.90
2018-02-16T13:47:32.262Z,6.00
2018-02-16T13:50:07.435Z,4.20
2018-02-16T13:52:42.352Z,4.43
2018-02-16T13:55:17.413Z,4.57
2018-02-16T13:57:52.223Z,4.50
2018-02-16T14:00:27.123Z,4.00
2018-02-16T14:03:01.998Z,4.00
2018-02-16T14:05:36.927Z,4.20
2018-02-16T14:08:12.186Z,3.77
2018-02-16T14:10:46.834Z,4.17
2018-02-16T14:13:22.105Z,4.22
2018-02-16T14:15:57.006Z,4.90
2018-02-16T14:18:32.017Z,6.77
2018-02-16T14:21:07.154Z,4.20
2018-02-16T14:23:42.098Z,4.40
2018-02-16T14:26:17.159Z,3.17
2018-02-16T14:28:52.068Z,2.00
2018-02-16T14:31:27.115Z,3.37
2018-02-16T14:34:01.975Z,3.10
2018-02-16T14:36:36.534Z,4.30
2018-02-16T14:39:12.192Z,2.75
2018-02-16T14:41:47.157Z,3.80
2018-02-16T14:44:22.319Z,2.60
2018-02-16T14:46:57.295Z,2.70
2018-02-16T14:49:31.931Z,3.43
2018-02-16T14:52:07.015Z,3.50
2018-02-16T14:54:41.944Z,4.47
2018-02-16T14:57:16.903Z,6.45
2018-02-16T14:59:51.900Z,3.15
2018-02-16T15:02:26.567Z,2.40
2018-02-16T15:05:01.596Z,3.57
2018-02-16T15:07:36.399Z,2.10
2018-02-16T15:10:12.267Z,3.53
2018-02-16T15:12:47.262Z,4.27
2018-02-16T15:15:22.235Z,3.27
2018-02-16T15:17:57.962Z,3.17
2018-02-16T15:20:32.694Z,3.10
2018-02-16T15:23:07.999Z,3.43
2018-02-16T15:25:43.055Z,3.40
2018-02-16T15:28:18.239Z,3.15
2018-02-16T15:30:52.843Z,3.13
2018-02-16T15:33:28.218Z,4.10
2018-02-16T15:36:03.116Z,3.73
2018-02-16T15:38:38.116Z,2.83
2018-02-16T15:41:13.147Z,3.00
2018-02-16T15:43:48.014Z,3.80
2018-02-16T15:46:23.251Z,3.17
2018-02-16T15:48:58.451Z,2.90
2018-02-16T15:51:33.184Z,3.23
2018-02-16T15:54:08.166Z,3.17
2018-02-16T15:56:42.995Z,2.70
2018-02-16T15:59:17.639Z,2.33
2018-02-16T16:01:52.596Z,3.37
2018-02-16T16:04:27.514Z,2.90
2018-02-16T16:07:02.598Z,2.77
2018-02-16T16:09:37.511Z,2.63
2018-02-16T16:12:12.482Z,2.93
2018-02-16T16:14:47.375Z,3.33
2018-02-16T16:17:22.866Z,3.60
2018-02-16T16:19:58.211Z,3.13
2018-02-16T16:22:33.214Z,2.70
2018-02-16T16:25:08.207Z,2.80
2018-02-16T16:27:43.019Z,2.72
2018-02-16T16:30:18.319Z,3.05
2018-02-16T16:32:53.259Z,3.60
2018-02-16T16:35:28.418Z,4.37
2018-02-16T16:38:03.263Z,7.33
2018-02-16T16:40:38.263Z,5.37
2018-02-16T16:43:13.559Z,8.73
2018-02-16T16:45:48.358Z,5.57
2018-02-16T16:48:23.423Z,2.97
2018-02-16T16:50:58.330Z,5.60
2018-02-16T16:53:33.378Z,3.03
2018-02-16T16:56:09.347Z,4.77
2018-02-16T16:58:44.247Z,4.27
2018-02-16T17:01:18.315Z,3.70
2018-02-16T17:03:52.496Z,3.20
2018-02-16T17:06:27.461Z,3.73
2018-02-16T17:09:02.589Z,3.33
2018-02-16T17:11:37.375Z,4.10
2018-02-16T17:14:12.667Z,4.00
2018-02-16T17:16:47.527Z,3.40
2018-02-16T17:19:22.099Z,3.10
2018-02-16T17:21:57.454Z,3.73
2018-02-16T17:24:32.026Z,3.80
2018-02-16T17:27:07.286Z,3.30
2018-02-16T17:29:42.359Z,3.10
2018-02-16T17:32:16.895Z,3.93
2018-02-16T17:34:52.286Z,3.67
2018-02-16T17:37:27.216Z,4.68
2018-02-16T17:40:02.278Z,5.60
2018-02-16T17:42:37.287Z,4.83
2018-02-16T17:45:12.180Z,7.57
2018-02-16T17:47:46.899Z,9.23
2018-02-16T17:50:21.786Z,6.50
2018-02-16T17:52:56.744Z,6.90
2018-02-16T17:55:32.004Z,8.63
2018-02-16T17:58:07.016Z,7.70
2018-02-16T18:00:41.672Z,6.87
2018-02-16T18:03:16.782Z,7.37
2018-02-16T18:05:51.727Z,6.30
2018-02-16T18:08:26.563Z,6.47
2018-02-16T18:11:01.170Z,7.60
2018-02-16T18:13:36.312Z,8.30
2018-02-16T18:16:11.722Z,7.65
2018-02-16T18:18:46.803Z,5.90
2018-02-16T18:21:22.614Z,7.43
2018-02-16T18:23:57.839Z,6.50
2018-02-16T18:26:32.951Z,5.90
2018-02-16T18:29:07.971Z,6.23
2018-02-16T18:31:42.799Z,7.30
2018-02-16T18:34:17.419Z,6.53
2018-02-16T18:36:52.762Z,6.77
2018-02-16T18:39:28.001Z,7.07
2018-02-16T18:42:02.787Z,6.53
2018-02-16T18:44:37.423Z,6.50
2018-02-16T18:47:12.127Z,5.53
2018-02-16T18:49:47.514Z,5.23
2018-02-16T18:52:22.235Z,6.17
2018-02-16T18:54:57.399Z,5.73
2018-02-16T18:57:32.143Z,5.83
2018-02-16T19:00:06.706Z,5.50
2018-02-16T19:02:42.743Z,5.40
2018-02-16T19:05:17.975Z,5.67
2018-02-16T19:07:52.919Z,4.77
2018-02-16T19:10:27.379Z,5.87
2018-02-16T19:13:02.602Z,5.40
2018-02-16T19:15:37.182Z,6.33
2018-02-16T19:18:12.038Z,6.18
2018-02-16T19:20:46.979Z,6.50
2018-02-16T19:23:22.031Z,6.20
2018-02-16T19:25:56.878Z,6.43
2018-02-16T19:28:31.622Z,6.27
2018-02-16T19:31:06.710Z,6.97
2018-02-16T19:33:41.731Z,6.77
2018-02-16T19:36:17.800Z,6.20
2018-02-16T19:38:54.067Z,6.30
2018-02-16T19:41:29.610Z,9.47
2018-02-16T19:44:04.104Z,7.00
2018-02-16T19:46:39.480Z,8.10
2018-02-16T19:49:14.795Z,7.40
2018-02-16T19:51:50.354Z,9.15
2018-02-16T19:54:24.893Z,7.57
2018-02-16T19:57:00.303Z,8.07
2018-02-16T19:59:35.992Z,7.27
2018-02-16T20:02:10.998Z,7.00
2018-02-16T20:04:46.466Z,5.83
2018-02-16T20:07:21.438Z,7.47
2018-02-16T20:09:56.488Z,6.30
2018-02-16T20:12:31.594Z,7.90
2018-02-16T20:15:07.018Z,6.03
2018-02-16T20:17:42.157Z,5.93
2018-02-16T20:20:16.995Z,7.63
2018-02-16T20:22:51.255Z,9.27
2018-02-16T20:25:26.616Z,11.90
2018-02-16T20:28:01.307Z,9.35
2018-02-16T20:30:36.325Z,10.50
2018-02-16T20:33:11.179Z,8.00
2018-02-16T20:35:46.518Z,8.13
2018-02-16T20:38:21.530Z,9.50
2018-02-16T20:40:56.176Z,9.97
2018-02-16T20:43:31.167Z,6.10
2018-02-16T20:46:06.485Z,8.80
2018-02-16T20:48:41.419Z,8.95
2018-02-16T20:51:16.310Z,9.57
2018-02-16T20:53:51.510Z,8.60
2018-02-16T20:56:26.531Z,8.43
2018-02-16T20:59:01.587Z,8.50
2018-02-16T21:01:36.447Z,10.40
2018-02-16T21:04:11.668Z,12.83
2018-02-16T21:06:46.494Z,10.60
2018-02-16T21:09:21.822Z,11.03
2018-02-16T21:11:56.871Z,10.68
2018-02-16T21:14:31.843Z,9.23
2018-02-16T21:17:07.291Z,8.83
2018-02-16T21:19:42.911Z,10.50
2018-02-16T21:22:18.243Z,10.93
2018-02-16T21:24:53.172Z,10.45
2018-02-16T21:27:28.095Z,9.70
2018-02-16T21:30:02.658Z,8.50
2018-02-16T21:32:37.720Z,8.80
2018-02-16T21:35:12.509Z,8.47
2018-02-16T21:37:47.415Z,8.27
2018-02-16T21:40:22.218Z,7.60
2018-02-16T21:42:57.299Z,9.05
2018-02-16T21:45:32.419Z,8.60
2018-02-16T21:48:07.403Z,8.83
2018-02-16T21:50:41.786Z,8.83
2018-02-16T21:53:17.240Z,8.87
2018-02-16T21:55:52.531Z,8.60
2018-02-16T21:58:27.791Z,8.97
2018-02-16T22:01:03.176Z,10.25
2018-02-16T22:03:37.847Z,13.83
2018-02-16T22:06:12.792Z,12.73
2018-02-16T22:08:47.869Z,10.37
2018-02-16T22:11:22.473Z,10.60
2018-02-16T22:13:57.768Z,7.72
2018-02-16T22:16:32.438Z,10.80
2018-02-16T22:19:07.650Z,8.77
2018-02-16T22:21:42.387Z,9.90
2018-02-16T22:24:17.438Z,9.20
2018-02-16T22:26:52.074Z,8.50
2018-02-16T22:29:26.823Z,8.23
2018-02-16T22:32:01.683Z,7.20
2018-02-16T22:34:36.367Z,8.63
2018-02-16T22:37:11.331Z,7.50
2018-02-16T22:39:46.726Z,7.60
2018-02-16T22:42:21.475Z,8.87
2018-02-16T22:44:56.724Z,9.05
2018-02-16T22:47:31.823Z,8.07
2018-02-16T22:50:06.975Z,8.50
2018-02-16T22:52:42.013Z,8.90
2018-02-16T22:55:16.464Z,8.00
2018-02-16T22:57:51.229Z,7.97
2018-02-16T23:00:25.917Z,9.27
2018-02-16T23:03:01.423Z,9.17
2018-02-16T23:05:36.547Z,9.83
2018-02-16T23:08:11.590Z,9.10
2018-02-16T23:10:46.947Z,10.00
2018-02-16T23:13:21.730Z,9.77
2018-02-16T23:15:56.815Z,8.70
2018-02-16T23:18:31.834Z,8.03
2018-02-16T23:21:06.907Z,9.87
2018-02-16T23:23:41.418Z,7.87
2018-02-16T23:26:16.746Z,8.97
2018-02-16T23:28:51.703Z,13.27
2018-02-16T23:31:27.004Z,15.83
2018-02-16T23:34:02.623Z,14.85
2018-02-16T23:36:38.287Z,10.47
2018-02-16T23:39:13.591Z,9.67
2018-02-16T23:41:48.887Z,9.20
2018-02-16T23:44:23.893Z,8.77
2018-02-16T23:46:59.530Z,9.10
2018-02-16T23:49:34.532Z,9.20
2018-02-16T23:52:09.567Z,9.87
2018-02-16T23:54:44.832Z,8.43
2018-02-16T23:57:18.988Z,8.97
2018-02-16T23:59:53.426Z,8.67
